CheckWX is a tool to help pilots better visualize weather data.  It is not intended as a substitute for an official pre-flight weather briefing.

10:05:34 UTC

KHRO TAF
Boone County Airport
Harrison, Arkansas, USA
KHRO 260521Z 2606/2706 19003KT P6SM BKN040 FM261000 VRB02KT 6SM BR SCT005 FM261400 22006KT P6SM BKN040 FM261800 19009KT P6SM BKN040 PROB30 2618/2624 TS SCT025CB FM270000 20005KT 6SM HZ BR BKN250

Jun-26@
06:00 UTC

Jun-26 @ 06:00 UTC

Jun-26@
10:00 UTC

Jun-26 @ 10:00 UTC

KHRO 260521Z 2606/2706 19003KT P6SM BKN040

Expired

Wind
  • 190° at 3 KTS
Cloud Levels
  • Broken at 4,000' AGL

Jun-26@
10:00 UTC

Jun-26 @ 10:00 UTC

Jun-26@
14:00 UTC

Jun-26 @ 14:00 UTC

FM261000 VRB02KT 6SM BR SCT005

From

From Standard forecast or significant change

Wind
  • Variable at 2 KTS
Conditions
Mist
Cloud Levels
  • Scattered at 500' AGL

Jun-26@
14:00 UTC

Jun-26 @ 14:00 UTC

Jun-26@
18:00 UTC

Jun-26 @ 18:00 UTC

FM261400 22006KT P6SM BKN040

From

From Standard forecast or significant change

Wind
  • 220° at 6 KTS
Cloud Levels
  • Broken at 4,000' AGL

Jun-26@
18:00 UTC

Jun-26 @ 18:00 UTC

Jun-27@
00:00 UTC

Jun-27 @ 00:00 UTC

FM261800 19009KT P6SM BKN040

From

From Standard forecast or significant change

Wind
  • 190° at 9 KTS
Cloud Levels
  • Broken at 4,000' AGL

Jun-26@
18:00 UTC

Jun-26 @ 18:00 UTC

Jun-27@
00:00 UTC

Jun-27 @ 00:00 UTC

PROB30 2618/2624 TS SCT025CB

Probable - 30% Likelihood

Probable - 30% Likelihood during this time.

Conditions
Thunderstorm
Cloud Levels
  • Scattered at 2,500' AGL

Jun-27@
00:00 UTC

Jun-27 @ 00:00 UTC

Jun-27@
06:00 UTC

Jun-27 @ 06:00 UTC

FM270000 20005KT 6SM HZ BR BKN250

From

From Standard forecast or significant change

Wind
  • 200° at 5 KTS
Conditions
Haze, Mist
Cloud Levels
  • Broken at 25,000' AGL